sensor_id;sensor_type;location;lat;lon;timestamp;P1;durP1;ratioP1;P2;durP2;ratioP2
29854;SDS011;16733;48.738;9.106;2023-09-18T00:00:47;4.50;;;1.98;;
29854;SDS011;16733;48.738;9.106;2023-09-18T00:03:20;6.15;;;1.67;;
29854;SDS011;16733;48.738;9.106;2023-09-18T00:05:49;5.15;;;1.67;;
29854;SDS011;16733;48.738;9.106;2023-09-18T00:08:16;3.80;;;1.83;;
29854;SDS011;16733;48.738;9.106;2023-09-18T00:10:42;2.15;;;1.75;;
29854;SDS011;16733;48.738;9.106;2023-09-18T00:13:08;3.33;;;1.90;;
29854;SDS011;16733;48.738;9.106;2023-09-18T00:15:34;4.80;;;1.80;;
29854;SDS011;16733;48.738;9.106;2023-09-18T00:18:02;2.63;;;1.73;;
29854;SDS011;16733;48.738;9.106;2023-09-18T00:20:28;3.08;;;1.67;;
29854;SDS011;16733;48.738;9.106;2023-09-18T00:22:54;2.85;;;1.38;;
29854;SDS011;16733;48.738;9.106;2023-09-18T00:25:20;3.30;;;1.65;;
29854;SDS011;16733;48.738;9.106;2023-09-18T00:27:46;8.43;;;1.92;;
29854;SDS011;16733;48.738;9.106;2023-09-18T00:30:12;5.65;;;1.70;;
29854;SDS011;16733;48.738;9.106;2023-09-18T00:32:38;4.72;;;1.73;;
29854;SDS011;16733;48.738;9.106;2023-09-18T00:35:04;2.22;;;1.70;;
29854;SDS011;16733;48.738;9.106;2023-09-18T00:37:30;4.35;;;1.63;;
29854;SDS011;16733;48.738;9.106;2023-09-18T00:39:56;2.50;;;1.80;;
29854;SDS011;16733;48.738;9.106;2023-09-18T00:42:23;3.28;;;1.40;;
29854;SDS011;16733;48.738;9.106;2023-09-18T00:44:49;2.78;;;1.63;;
29854;SDS011;16733;48.738;9.106;2023-09-18T00:47:15;2.67;;;1.38;;
29854;SDS011;16733;48.738;9.106;2023-09-18T00:49:43;3.03;;;1.75;;
29854;SDS011;16733;48.738;9.106;2023-09-18T00:52:10;5.28;;;1.83;;
29854;SDS011;16733;48.738;9.106;2023-09-18T00:54:37;3.17;;;1.60;;
29854;SDS011;16733;48.738;9.106;2023-09-18T00:57:04;5.05;;;1.48;;
29854;SDS011;16733;48.738;9.106;2023-09-18T00:59:31;2.22;;;1.85;;
29854;SDS011;16733;48.738;9.106;2023-09-18T01:01:58;1.73;;;1.52;;
29854;SDS011;16733;48.738;9.106;2023-09-18T01:04:25;3.97;;;2.25;;
29854;SDS011;16733;48.738;9.106;2023-09-18T01:06:53;1.88;;;1.50;;
29854;SDS011;16733;48.738;9.106;2023-09-18T01:09:23;2.95;;;1.73;;
29854;SDS011;16733;48.738;9.106;2023-09-18T01:17:00;3.22;;;2.00;;
29854;SDS011;16733;48.738;9.106;2023-09-18T01:19:41;2.88;;;1.60;;
29854;SDS011;16733;48.738;9.106;2023-09-18T01:22:12;3.17;;;1.48;;
29854;SDS011;16733;48.738;9.106;2023-09-18T01:24:38;2.10;;;1.55;;
29854;SDS011;16733;48.738;9.106;2023-09-18T01:27:08;2.53;;;1.70;;
29854;SDS011;16733;48.738;9.106;2023-09-18T01:29:34;4.47;;;1.50;;
29854;SDS011;16733;48.738;9.106;2023-09-18T01:32:00;3.00;;;1.70;;
29854;SDS011;16733;48.738;9.106;2023-09-18T01:34:33;2.35;;;1.45;;
29854;SDS011;16733;48.738;9.106;2023-09-18T01:37:01;3.38;;;1.50;;
29854;SDS011;16733;48.738;9.106;2023-09-18T01:39:29;4.18;;;1.52;;
29854;SDS011;16733;48.738;9.106;2023-09-18T01:41:59;3.95;;;1.50;;
29854;SDS011;16733;48.738;9.106;2023-09-18T01:44:26;4.40;;;1.33;;
29854;SDS011;16733;48.738;9.106;2023-09-18T01:46:52;6.75;;;1.88;;
29854;SDS011;16733;48.738;9.106;2023-09-18T01:49:32;6.90;;;1.55;;
29854;SDS011;16733;48.738;9.106;2023-09-18T01:51:59;2.53;;;1.35;;
29854;SDS011;16733;48.738;9.106;2023-09-18T01:54:25;3.55;;;1.40;;
29854;SDS011;16733;48.738;9.106;2023-09-18T01:56:51;7.35;;;1.40;;
29854;SDS011;16733;48.738;9.106;2023-09-18T01:59:18;8.45;;;1.70;;
29854;SDS011;16733;48.738;9.106;2023-09-18T02:01:44;3.40;;;1.55;;
29854;SDS011;16733;48.738;9.106;2023-09-18T02:04:10;10.48;;;2.08;;
29854;SDS011;16733;48.738;9.106;2023-09-18T02:06:36;11.13;;;1.70;;
29854;SDS011;16733;48.738;9.106;2023-09-18T02:09:02;11.88;;;2.17;;
29854;SDS011;16733;48.738;9.106;2023-09-18T02:11:28;8.25;;;1.50;;
29854;SDS011;16733;48.738;9.106;2023-09-18T02:13:55;7.68;;;1.60;;
29854;SDS011;16733;48.738;9.106;2023-09-18T02:16:21;11.00;;;2.10;;
29854;SDS011;16733;48.738;9.106;2023-09-18T02:18:47;4.30;;;1.63;;
29854;SDS011;16733;48.738;9.106;2023-09-18T02:21:20;7.03;;;1.67;;
29854;SDS011;16733;48.738;9.106;2023-09-18T02:23:48;21.30;;;1.95;;
29854;SDS011;16733;48.738;9.106;2023-09-18T02:26:15;9.02;;;1.75;;
29854;SDS011;16733;48.738;9.106;2023-09-18T02:28:41;7.88;;;1.60;;
29854;SDS011;16733;48.738;9.106;2023-09-18T02:31:07;12.07;;;2.30;;
29854;SDS011;16733;48.738;9.106;2023-09-18T02:33:33;5.70;;;1.75;;
29854;SDS011;16733;48.738;9.106;2023-09-18T02:35:59;18.02;;;2.10;;
29854;SDS011;16733;48.738;9.106;2023-09-18T02:38:26;10.65;;;2.63;;
29854;SDS011;16733;48.738;9.106;2023-09-18T02:40:52;24.05;;;2.35;;
29854;SDS011;16733;48.738;9.106;2023-09-18T02:43:19;15.75;;;1.70;;
29854;SDS011;16733;48.738;9.106;2023-09-18T02:45:45;9.35;;;1.58;;
29854;SDS011;16733;48.738;9.106;2023-09-18T02:48:11;7.90;;;1.95;;
29854;SDS011;16733;48.738;9.106;2023-09-18T02:50:37;18.00;;;1.92;;
29854;SDS011;16733;48.738;9.106;2023-09-18T02:53:05;7.20;;;1.73;;
29854;SDS011;16733;48.738;9.106;2023-09-18T02:55:31;9.27;;;1.77;;
29854;SDS011;16733;48.738;9.106;2023-09-18T02:57:57;7.65;;;1.33;;
29854;SDS011;16733;48.738;9.106;2023-09-18T03:00:24;10.40;;;1.65;;
29854;SDS011;16733;48.738;9.106;2023-09-18T03:02:50;23.15;;;1.85;;
29854;SDS011;16733;48.738;9.106;2023-09-18T03:05:16;12.50;;;2.08;;
29854;SDS011;16733;48.738;9.106;2023-09-18T03:07:42;8.05;;;1.60;;
29854;SDS011;16733;48.738;9.106;2023-09-18T03:10:09;8.23;;;1.50;;
29854;SDS011;16733;48.738;9.106;2023-09-18T03:12:38;10.25;;;1.50;;
29854;SDS011;16733;48.738;9.106;2023-09-18T03:15:05;7.47;;;1.58;;
29854;SDS011;16733;48.738;9.106;2023-09-18T03:17:31;5.65;;;1.90;;
29854;SDS011;16733;48.738;9.106;2023-09-18T03:19:58;13.43;;;2.08;;
29854;SDS011;16733;48.738;9.106;2023-09-18T03:22:24;8.80;;;1.58;;
29854;SDS011;16733;48.738;9.106;2023-09-18T03:24:50;11.95;;;1.50;;
29854;SDS011;16733;48.738;9.106;2023-09-18T03:27:16;10.10;;;1.60;;
29854;SDS011;16733;48.738;9.106;2023-09-18T03:29:42;8.35;;;2.08;;
29854;SDS011;16733;48.738;9.106;2023-09-18T03:32:08;7.28;;;1.48;;
29854;SDS011;16733;48.738;9.106;2023-09-18T03:34:37;7.28;;;1.70;;
29854;SDS011;16733;48.738;9.106;2023-09-18T03:37:03;9.63;;;1.80;;
29854;SDS011;16733;48.738;9.106;2023-09-18T03:39:29;6.97;;;1.85;;
29854;SDS011;16733;48.738;9.106;2023-09-18T03:41:55;10.68;;;1.63;;
29854;SDS011;16733;48.738;9.106;2023-09-18T03:44:22;14.85;;;1.90;;
29854;SDS011;16733;48.738;9.106;2023-09-18T03:46:48;9.15;;;1.60;;
29854;SDS011;16733;48.738;9.106;2023-09-18T03:49:14;7.13;;;1.30;;
29854;SDS011;16733;48.738;9.106;2023-09-18T03:51:40;8.23;;;1.70;;
29854;SDS011;16733;48.738;9.106;2023-09-18T03:54:06;6.63;;;1.77;;
29854;SDS011;16733;48.738;9.106;2023-09-18T03:56:32;6.20;;;2.00;;
29854;SDS011;16733;48.738;9.106;2023-09-18T03:58:58;7.40;;;1.65;;
29854;SDS011;16733;48.738;9.106;2023-09-18T04:01:26;22.45;;;2.75;;
29854;SDS011;16733;48.738;9.106;2023-09-18T04:03:52;11.63;;;1.60;;
29854;SDS011;16733;48.738;9.106;2023-09-18T04:06:20;12.90;;;2.22;;
29854;SDS011;16733;48.738;9.106;2023-09-18T04:08:46;6.88;;;1.65;;
29854;SDS011;16733;48.738;9.106;2023-09-18T04:11:12;12.80;;;2.47;;
29854;SDS011;16733;48.738;9.106;2023-09-18T04:13:38;9.57;;;1.90;;
29854;SDS011;16733;48.738;9.106;2023-09-18T04:16:04;7.22;;;1.52;;
29854;SDS011;16733;48.738;9.106;2023-09-18T04:18:30;6.57;;;1.45;;
29854;SDS011;16733;48.738;9.106;2023-09-18T04:20:56;9.35;;;2.00;;
29854;SDS011;16733;48.738;9.106;2023-09-18T04:23:23;6.35;;;1.52;;
29854;SDS011;16733;48.738;9.106;2023-09-18T04:25:50;7.80;;;1.63;;
29854;SDS011;16733;48.738;9.106;2023-09-18T04:28:17;6.82;;;1.90;;
29854;SDS011;16733;48.738;9.106;2023-09-18T04:30:44;11.38;;;1.77;;
29854;SDS011;16733;48.738;9.106;2023-09-18T04:33:10;10.77;;;1.92;;
29854;SDS011;16733;48.738;9.106;2023-09-18T04:35:37;8.68;;;1.50;;
29854;SDS011;16733;48.738;9.106;2023-09-18T04:38:04;9.32;;;1.30;;
29854;SDS011;16733;48.738;9.106;2023-09-18T04:40:30;7.60;;;1.88;;
29854;SDS011;16733;48.738;9.106;2023-09-18T04:42:57;16.08;;;2.45;;
29854;SDS011;16733;48.738;9.106;2023-09-18T04:45:24;7.25;;;1.75;;
29854;SDS011;16733;48.738;9.106;2023-09-18T04:47:50;5.43;;;1.42;;
29854;SDS011;16733;48.738;9.106;2023-09-18T04:50:16;4.95;;;1.83;;
29854;SDS011;16733;48.738;9.106;2023-09-18T04:52:42;9.48;;;1.83;;
29854;SDS011;16733;48.738;9.106;2023-09-18T04:55:09;6.05;;;1.88;;
29854;SDS011;16733;48.738;9.106;2023-09-18T04:57:35;5.72;;;1.50;;
29854;SDS011;16733;48.738;9.106;2023-09-18T05:00:02;7.78;;;1.90;;
29854;SDS011;16733;48.738;9.106;2023-09-18T05:02:28;7.32;;;1.70;;
29854;SDS011;16733;48.738;9.106;2023-09-18T05:04:55;3.63;;;1.50;;
29854;SDS011;16733;48.738;9.106;2023-09-18T05:07:22;8.90;;;1.65;;
29854;SDS011;16733;48.738;9.106;2023-09-18T05:09:47;11.18;;;1.85;;
29854;SDS011;16733;48.738;9.106;2023-09-18T05:12:14;6.93;;;1.60;;
29854;SDS011;16733;48.738;9.106;2023-09-18T05:14:41;7.05;;;1.73;;
29854;SDS011;16733;48.738;9.106;2023-09-18T05:17:09;12.13;;;2.30;;
29854;SDS011;16733;48.738;9.106;2023-09-18T05:19:36;6.88;;;1.48;;
29854;SDS011;16733;48.738;9.106;2023-09-18T05:22:02;9.35;;;2.50;;
29854;SDS011;16733;48.738;9.106;2023-09-18T05:24:28;4.40;;;1.80;;
29854;SDS011;16733;48.738;9.106;2023-09-18T05:26:54;7.93;;;1.60;;
29854;SDS011;16733;48.738;9.106;2023-09-18T05:29:21;6.85;;;1.88;;
29854;SDS011;16733;48.738;9.106;2023-09-18T05:31:47;8.32;;;2.42;;
29854;SDS011;16733;48.738;9.106;2023-09-18T05:34:13;6.75;;;1.58;;
29854;SDS011;16733;48.738;9.106;2023-09-18T05:36:39;9.82;;;1.73;;
29854;SDS011;16733;48.738;9.106;2023-09-18T05:39:05;9.05;;;1.73;;
29854;SDS011;16733;48.738;9.106;2023-09-18T05:41:37;6.30;;;1.48;;
29854;SDS011;16733;48.738;9.106;2023-09-18T05:44:03;8.18;;;2.40;;
29854;SDS011;16733;48.738;9.106;2023-09-18T05:46:31;8.73;;;1.30;;
29854;SDS011;16733;48.738;9.106;2023-09-18T05:48:57;2.67;;;1.40;;
29854;SDS011;16733;48.738;9.106;2023-09-18T05:51:25;10.07;;;1.83;;
29854;SDS011;16733;48.738;9.106;2023-09-18T05:53:52;4.85;;;1.38;;
29854;SDS011;16733;48.738;9.106;2023-09-18T05:56:18;4.75;;;1.20;;
29854;SDS011;16733;48.738;9.106;2023-09-18T05:58:44;5.30;;;1.45;;
29854;SDS011;16733;48.738;9.106;2023-09-18T06:01:10;2.90;;;1.33;;
29854;SDS011;16733;48.738;9.106;2023-09-18T06:03:36;6.28;;;1.75;;
29854;SDS011;16733;48.738;9.106;2023-09-18T06:06:02;3.20;;;1.27;;
29854;SDS011;16733;48.738;9.106;2023-09-18T06:08:28;7.10;;;1.75;;
29854;SDS011;16733;48.738;9.106;2023-09-18T06:10:55;7.20;;;1.48;;
29854;SDS011;16733;48.738;9.106;2023-09-18T06:13:21;5.20;;;1.38;;
29854;SDS011;16733;48.738;9.106;2023-09-18T06:15:48;7.35;;;1.92;;
29854;SDS011;16733;48.738;9.106;2023-09-18T06:18:14;7.13;;;1.92;;
29854;SDS011;16733;48.738;9.106;2023-09-18T06:20:40;6.22;;;1.88;;
29854;SDS011;16733;48.738;9.106;2023-09-18T06:23:06;7.88;;;1.80;;
29854;SDS011;16733;48.738;9.106;2023-09-18T06:25:32;8.85;;;1.50;;
29854;SDS011;16733;48.738;9.106;2023-09-18T06:27:58;8.10;;;1.85;;
29854;SDS011;16733;48.738;9.106;2023-09-18T06:30:25;6.75;;;1.25;;
29854;SDS011;16733;48.738;9.106;2023-09-18T06:32:51;12.25;;;1.70;;
29854;SDS011;16733;48.738;9.106;2023-09-18T06:35:18;7.40;;;1.45;;
29854;SDS011;16733;48.738;9.106;2023-09-18T06:37:43;7.43;;;1.50;;
29854;SDS011;16733;48.738;9.106;2023-09-18T06:40:09;12.82;;;2.03;;
29854;SDS011;16733;48.738;9.106;2023-09-18T06:42:39;7.68;;;1.10;;
29854;SDS011;16733;48.738;9.106;2023-09-18T06:45:05;13.07;;;1.85;;
29854;SDS011;16733;48.738;9.106;2023-09-18T06:47:32;8.05;;;1.42;;
29854;SDS011;16733;48.738;9.106;2023-09-18T06:49:58;7.47;;;1.48;;
29854;SDS011;16733;48.738;9.106;2023-09-18T06:52:25;6.90;;;1.73;;
29854;SDS011;16733;48.738;9.106;2023-09-18T06:54:52;4.82;;;1.63;;
29854;SDS011;16733;48.738;9.106;2023-09-18T06:57:18;7.07;;;1.42;;
29854;SDS011;16733;48.738;9.106;2023-09-18T06:59:47;7.22;;;1.42;;
29854;SDS011;16733;48.738;9.106;2023-09-18T07:02:13;6.50;;;1.48;;
29854;SDS011;16733;48.738;9.106;2023-09-18T07:04:40;4.95;;;1.10;;
29854;SDS011;16733;48.738;9.106;2023-09-18T07:07:10;5.93;;;1.55;;
29854;SDS011;16733;48.738;9.106;2023-09-18T07:09:37;7.20;;;1.85;;
29854;SDS011;16733;48.738;9.106;2023-09-18T07:12:03;4.45;;;1.00;;
29854;SDS011;16733;48.738;9.106;2023-09-18T07:14:29;5.72;;;0.70;;
29854;SDS011;16733;48.738;9.106;2023-09-18T07:16:56;5.82;;;1.10;;
29854;SDS011;16733;48.738;9.106;2023-09-18T07:19:22;6.10;;;1.30;;
29854;SDS011;16733;48.738;9.106;2023-09-18T07:21:48;3.38;;;0.90;;
29854;SDS011;16733;48.738;9.106;2023-09-18T07:24:14;5.68;;;1.20;;
29854;SDS011;16733;48.738;9.106;2023-09-18T07:26:45;4.38;;;0.90;;
29854;SDS011;16733;48.738;9.106;2023-09-18T07:29:12;4.32;;;0.88;;
29854;SDS011;16733;48.738;9.106;2023-09-18T07:31:38;4.72;;;1.10;;
29854;SDS011;16733;48.738;9.106;2023-09-18T07:34:05;5.85;;;0.70;;
29854;SDS011;16733;48.738;9.106;2023-09-18T07:36:31;4.30;;;0.90;;
29854;SDS011;16733;48.738;9.106;2023-09-18T07:38:57;3.28;;;0.93;;
29854;SDS011;16733;48.738;9.106;2023-09-18T07:41:23;1.13;;;0.70;;
29854;SDS011;16733;48.738;9.106;2023-09-18T07:43:50;2.40;;;0.80;;
29854;SDS011;16733;48.738;9.106;2023-09-18T07:46:16;5.28;;;1.08;;
29854;SDS011;16733;48.738;9.106;2023-09-18T07:48:42;2.22;;;0.70;;
29854;SDS011;16733;48.738;9.106;2023-09-18T07:51:11;5.22;;;1.05;;
29854;SDS011;16733;48.738;9.106;2023-09-18T07:53:37;3.83;;;1.02;;
29854;SDS011;16733;48.738;9.106;2023-09-18T07:56:03;6.95;;;0.80;;
29854;SDS011;16733;48.738;9.106;2023-09-18T07:58:30;5.00;;;0.80;;
29854;SDS011;16733;48.738;9.106;2023-09-18T08:00:58;11.73;;;1.73;;
29854;SDS011;16733;48.738;9.106;2023-09-18T08:03:25;4.03;;;0.70;;
29854;SDS011;16733;48.738;9.106;2023-09-18T08:05:54;3.92;;;0.73;;
29854;SDS011;16733;48.738;9.106;2023-09-18T08:08:20;1.98;;;0.50;;
29854;SDS011;16733;48.738;9.106;2023-09-18T08:10:48;2.58;;;0.70;;
29854;SDS011;16733;48.738;9.106;2023-09-18T08:13:14;7.30;;;1.48;;
29854;SDS011;16733;48.738;9.106;2023-09-18T08:15:40;3.80;;;0.77;;
29854;SDS011;16733;48.738;9.106;2023-09-18T08:18:06;2.53;;;0.90;;
29854;SDS011;16733;48.738;9.106;2023-09-18T08:20:32;1.05;;;0.70;;
29854;SDS011;16733;48.738;9.106;2023-09-18T08:22:58;4.32;;;0.70;;
29854;SDS011;16733;48.738;9.106;2023-09-18T08:25:28;2.25;;;0.43;;
29854;SDS011;16733;48.738;9.106;2023-09-18T08:27:55;2.40;;;0.60;;
29854;SDS011;16733;48.738;9.106;2023-09-18T08:30:21;1.80;;;0.60;;
29854;SDS011;16733;48.738;9.106;2023-09-18T08:32:47;2.78;;;0.60;;
29854;SDS011;16733;48.738;9.106;2023-09-18T08:35:13;1.83;;;0.55;;
29854;SDS011;16733;48.738;9.106;2023-09-18T08:37:43;4.20;;;0.90;;
29854;SDS011;16733;48.738;9.106;2023-09-18T08:40:09;1.27;;;0.47;;
29854;SDS011;16733;48.738;9.106;2023-09-18T08:42:38;3.95;;;1.00;;
29854;SDS011;16733;48.738;9.106;2023-09-18T08:45:08;4.20;;;0.50;;
29854;SDS011;16733;48.738;9.106;2023-09-18T08:47:35;6.32;;;0.63;;
29854;SDS011;16733;48.738;9.106;2023-09-18T08:50:01;2.65;;;0.60;;
29854;SDS011;16733;48.738;9.106;2023-09-18T08:52:27;3.03;;;0.80;;
29854;SDS011;16733;48.738;9.106;2023-09-18T08:54:54;5.55;;;0.73;;
29854;SDS011;16733;48.738;9.106;2023-09-18T08:57:21;2.05;;;0.40;;
29854;SDS011;16733;48.738;9.106;2023-09-18T08:59:48;5.18;;;1.08;;
29854;SDS011;16733;48.738;9.106;2023-09-18T09:02:14;3.00;;;0.50;;
29854;SDS011;16733;48.738;9.106;2023-09-18T09:04:40;3.28;;;0.50;;
29854;SDS011;16733;48.738;9.106;2023-09-18T09:07:06;2.30;;;0.82;;
29854;SDS011;16733;48.738;9.106;2023-09-18T09:09:32;4.60;;;1.45;;
29854;SDS011;16733;48.738;9.106;2023-09-18T09:11:58;3.75;;;1.00;;
29854;SDS011;16733;48.738;9.106;2023-09-18T09:14:24;4.32;;;0.90;;
29854;SDS011;16733;48.738;9.106;2023-09-18T09:16:54;5.43;;;1.20;;
29854;SDS011;16733;48.738;9.106;2023-09-18T09:19:30;3.13;;;0.80;;
29854;SDS011;16733;48.738;9.106;2023-09-18T09:21:57;4.32;;;1.17;;
29854;SDS011;16733;48.738;9.106;2023-09-18T09:24:43;4.70;;;1.00;;
29854;SDS011;16733;48.738;9.106;2023-09-18T09:27:10;6.10;;;1.17;;
29854;SDS011;16733;48.738;9.106;2023-09-18T09:29:37;8.52;;;1.48;;
29854;SDS011;16733;48.738;9.106;2023-09-18T09:34:40;4.88;;;1.50;;
29854;SDS011;16733;48.738;9.106;2023-09-18T09:37:06;6.07;;;1.35;;
29854;SDS011;16733;48.738;9.106;2023-09-18T09:39:32;3.58;;;1.63;;
29854;SDS011;16733;48.738;9.106;2023-09-18T09:41:59;4.50;;;2.17;;
29854;SDS011;16733;48.738;9.106;2023-09-18T09:44:26;3.78;;;1.40;;
29854;SDS011;16733;48.738;9.106;2023-09-18T09:46:53;3.17;;;1.08;;
29854;SDS011;16733;48.738;9.106;2023-09-18T09:49:20;5.80;;;1.45;;
29854;SDS011;16733;48.738;9.106;2023-09-18T09:51:48;5.05;;;1.17;;
29854;SDS011;16733;48.738;9.106;2023-09-18T09:54:14;6.68;;;1.27;;
29854;SDS011;16733;48.738;9.106;2023-09-18T09:59:06;2.20;;;1.00;;
29854;SDS011;16733;48.738;9.106;2023-09-18T10:01:36;3.78;;;1.30;;
29854;SDS011;16733;48.738;9.106;2023-09-18T10:04:21;3.40;;;0.93;;
29854;SDS011;16733;48.738;9.106;2023-09-18T10:06:52;7.25;;;1.60;;
29854;SDS011;16733;48.738;9.106;2023-09-18T10:09:19;4.00;;;1.05;;
29854;SDS011;16733;48.738;9.106;2023-09-18T10:11:45;2.97;;;1.55;;
29854;SDS011;16733;48.738;9.106;2023-09-18T10:14:15;8.00;;;1.08;;
29854;SDS011;16733;48.738;9.106;2023-09-18T10:16:44;3.78;;;1.13;;
29854;SDS011;16733;48.738;9.106;2023-09-18T10:19:26;2.42;;;1.17;;
29854;SDS011;16733;48.738;9.106;2023-09-18T10:22:01;4.05;;;1.15;;
29854;SDS011;16733;48.738;9.106;2023-09-18T10:24:32;7.50;;;1.23;;
29854;SDS011;16733;48.738;9.106;2023-09-18T10:26:59;2.95;;;1.13;;
29854;SDS011;16733;48.738;9.106;2023-09-18T10:29:28;9.15;;;1.63;;
29854;SDS011;16733;48.738;9.106;2023-09-18T10:31:55;3.38;;;1.20;;
29854;SDS011;16733;48.738;9.106;2023-09-18T10:34:22;4.25;;;0.93;;
29854;SDS011;16733;48.738;9.106;2023-09-18T10:36:49;4.45;;;1.10;;
29854;SDS011;16733;48.738;9.106;2023-09-18T10:39:15;3.15;;;1.02;;
29854;SDS011;16733;48.738;9.106;2023-09-18T10:41:51;6.22;;;1.30;;
29854;SDS011;16733;48.738;9.106;2023-09-18T10:44:17;3.20;;;1.20;;
29854;SDS011;16733;48.738;9.106;2023-09-18T10:46:47;6.38;;;1.25;;
29854;SDS011;16733;48.738;9.106;2023-09-18T10:49:14;2.22;;;1.00;;
29854;SDS011;16733;48.738;9.106;2023-09-18T10:51:40;4.07;;;1.50;;
29854;SDS011;16733;48.738;9.106;2023-09-18T10:54:10;2.78;;;1.20;;
29854;SDS011;16733;48.738;9.106;2023-09-18T10:56:37;5.95;;;1.13;;
29854;SDS011;16733;48.738;9.106;2023-09-18T10:59:05;6.43;;;1.50;;
29854;SDS011;16733;48.738;9.106;2023-09-18T11:01:32;7.68;;;1.48;;
29854;SDS011;16733;48.738;9.106;2023-09-18T11:04:01;2.17;;;1.17;;
29854;SDS011;16733;48.738;9.106;2023-09-18T11:09:21;5.05;;;0.95;;
29854;SDS011;16733;48.738;9.106;2023-09-18T11:11:51;1.95;;;1.00;;
29854;SDS011;16733;48.738;9.106;2023-09-18T11:14:21;8.10;;;1.30;;
29854;SDS011;16733;48.738;9.106;2023-09-18T11:16:48;4.13;;;1.38;;
29854;SDS011;16733;48.738;9.106;2023-09-18T11:19:17;1.35;;;0.90;;
29854;SDS011;16733;48.738;9.106;2023-09-18T11:21:45;3.17;;;1.10;;
29854;SDS011;16733;48.738;9.106;2023-09-18T11:26:41;3.20;;;1.30;;
29854;SDS011;16733;48.738;9.106;2023-09-18T11:29:08;3.88;;;0.80;;
29854;SDS011;16733;48.738;9.106;2023-09-18T11:31:48;4.07;;;0.80;;
29854;SDS011;16733;48.738;9.106;2023-09-18T11:36:47;2.15;;;1.00;;
29854;SDS011;16733;48.738;9.106;2023-09-18T11:39:14;2.15;;;0.80;;
29854;SDS011;16733;48.738;9.106;2023-09-18T11:44:37;2.17;;;0.88;;
29854;SDS011;16733;48.738;9.106;2023-09-18T11:47:07;2.13;;;1.00;;
29854;SDS011;16733;48.738;9.106;2023-09-18T11:49:33;3.47;;;0.80;;
29854;SDS011;16733;48.738;9.106;2023-09-18T11:52:00;2.47;;;0.77;;
29854;SDS011;16733;48.738;9.106;2023-09-18T11:54:29;3.92;;;0.90;;
29854;SDS011;16733;48.738;9.106;2023-09-18T11:56:56;3.08;;;1.00;;
29854;SDS011;16733;48.738;9.106;2023-09-18T11:59:38;1.75;;;1.08;;
29854;SDS011;16733;48.738;9.106;2023-09-18T12:02:06;2.83;;;0.85;;
29854;SDS011;16733;48.738;9.106;2023-09-18T12:04:33;5.05;;;0.70;;
29854;SDS011;16733;48.738;9.106;2023-09-18T12:07:00;2.80;;;0.80;;
29854;SDS011;16733;48.738;9.106;2023-09-18T12:09:28;3.35;;;1.00;;
29854;SDS011;16733;48.738;9.106;2023-09-18T12:11:54;9.45;;;1.27;;
29854;SDS011;16733;48.738;9.106;2023-09-18T12:14:22;1.92;;;0.75;;
29854;SDS011;16733;48.738;9.106;2023-09-18T12:16:48;1.83;;;0.80;;
29854;SDS011;16733;48.738;9.106;2023-09-18T12:19:18;4.18;;;0.93;;
29854;SDS011;16733;48.738;9.106;2023-09-18T12:21:47;3.25;;;0.90;;
29854;SDS011;16733;48.738;9.106;2023-09-18T12:24:17;7.00;;;0.90;;
29854;SDS011;16733;48.738;9.106;2023-09-18T12:29:12;1.58;;;0.77;;
29854;SDS011;16733;48.738;9.106;2023-09-18T12:31:38;4.40;;;0.90;;
29854;SDS011;16733;48.738;9.106;2023-09-18T12:34:04;2.88;;;0.77;;
29854;SDS011;16733;48.738;9.106;2023-09-18T12:36:32;1.98;;;0.80;;
29854;SDS011;16733;48.738;9.106;2023-09-18T12:38:59;2.63;;;0.65;;
29854;SDS011;16733;48.738;9.106;2023-09-18T12:41:28;3.33;;;0.88;;
29854;SDS011;16733;48.738;9.106;2023-09-18T12:43:55;3.88;;;0.82;;
29854;SDS011;16733;48.738;9.106;2023-09-18T12:46:21;2.45;;;0.90;;
29854;SDS011;16733;48.738;9.106;2023-09-18T12:48:48;5.80;;;0.82;;
29854;SDS011;16733;48.738;9.106;2023-09-18T12:51:14;4.45;;;1.00;;
29854;SDS011;16733;48.738;9.106;2023-09-18T12:53:46;0.70;;;0.50;;
29854;SDS011;16733;48.738;9.106;2023-09-18T12:56:12;3.97;;;0.90;;
29854;SDS011;16733;48.738;9.106;2023-09-18T12:58:41;1.67;;;0.77;;
29854;SDS011;16733;48.738;9.106;2023-09-18T13:01:08;2.33;;;0.90;;
29854;SDS011;16733;48.738;9.106;2023-09-18T13:03:44;1.33;;;0.75;;
29854;SDS011;16733;48.738;9.106;2023-09-18T13:06:14;4.32;;;0.75;;
29854;SDS011;16733;48.738;9.106;2023-09-18T13:08:42;1.00;;;0.70;;
29854;SDS011;16733;48.738;9.106;2023-09-18T13:11:08;4.53;;;0.60;;
29854;SDS011;16733;48.738;9.106;2023-09-18T13:13:36;5.30;;;0.73;;
29854;SDS011;16733;48.738;9.106;2023-09-18T13:16:04;1.25;;;0.60;;
29854;SDS011;16733;48.738;9.106;2023-09-18T13:18:31;2.10;;;0.70;;
29854;SDS011;16733;48.738;9.106;2023-09-18T13:20:57;2.83;;;0.75;;
29854;SDS011;16733;48.738;9.106;2023-09-18T13:23:31;5.60;;;0.65;;
29854;SDS011;16733;48.738;9.106;2023-09-18T13:26:02;4.05;;;0.80;;
29854;SDS011;16733;48.738;9.106;2023-09-18T13:28:29;1.92;;;0.50;;
29854;SDS011;16733;48.738;9.106;2023-09-18T13:30:56;1.10;;;0.65;;
29854;SDS011;16733;48.738;9.106;2023-09-18T13:33:24;2.88;;;0.60;;
29854;SDS011;16733;48.738;9.106;2023-09-18T13:35:50;1.30;;;0.60;;
29854;SDS011;16733;48.738;9.106;2023-09-18T13:38:18;3.08;;;0.77;;
29854;SDS011;16733;48.738;9.106;2023-09-18T13:40:45;1.05;;;0.50;;
29854;SDS011;16733;48.738;9.106;2023-09-18T13:43:12;2.42;;;0.80;;
29854;SDS011;16733;48.738;9.106;2023-09-18T13:45:40;6.22;;;0.68;;
29854;SDS011;16733;48.738;9.106;2023-09-18T13:48:06;2.67;;;0.70;;
29854;SDS011;16733;48.738;9.106;2023-09-18T13:50:33;2.58;;;0.65;;
29854;SDS011;16733;48.738;9.106;2023-09-18T13:52:59;1.10;;;0.60;;
29854;SDS011;16733;48.738;9.106;2023-09-18T13:55:25;3.53;;;0.70;;
29854;SDS011;16733;48.738;9.106;2023-09-18T13:57:51;4.65;;;0.70;;
29854;SDS011;16733;48.738;9.106;2023-09-18T14:00:17;0.82;;;0.55;;
29854;SDS011;16733;48.738;9.106;2023-09-18T14:02:43;1.17;;;0.60;;
29854;SDS011;16733;48.738;9.106;2023-09-18T14:05:09;0.63;;;0.50;;
29854;SDS011;16733;48.738;9.106;2023-09-18T14:07:36;2.25;;;0.43;;
29854;SDS011;16733;48.738;9.106;2023-09-18T14:10:08;2.00;;;0.55;;
29854;SDS011;16733;48.738;9.106;2023-09-18T14:12:35;1.13;;;0.60;;
29854;SDS011;16733;48.738;9.106;2023-09-18T14:15:02;2.05;;;0.82;;
29854;SDS011;16733;48.738;9.106;2023-09-18T14:17:28;1.67;;;0.60;;
29854;SDS011;16733;48.738;9.106;2023-09-18T14:19:54;1.15;;;0.70;;
29854;SDS011;16733;48.738;9.106;2023-09-18T14:22:20;6.20;;;0.65;;
29854;SDS011;16733;48.738;9.106;2023-09-18T14:24:46;1.88;;;1.08;;
29854;SDS011;16733;48.738;9.106;2023-09-18T14:27:12;0.70;;;0.47;;
29854;SDS011;16733;48.738;9.106;2023-09-18T14:29:39;2.55;;;0.47;;
29854;SDS011;16733;48.738;9.106;2023-09-18T14:32:05;1.83;;;0.50;;
29854;SDS011;16733;48.738;9.106;2023-09-18T14:34:33;4.07;;;0.50;;
29854;SDS011;16733;48.738;9.106;2023-09-18T14:37:00;1.45;;;0.70;;
29854;SDS011;16733;48.738;9.106;2023-09-18T14:39:28;2.15;;;0.70;;
29854;SDS011;16733;48.738;9.106;2023-09-18T14:41:54;1.50;;;0.85;;
29854;SDS011;16733;48.738;9.106;2023-09-18T14:44:20;8.20;;;0.60;;
29854;SDS011;16733;48.738;9.106;2023-09-18T14:46:46;5.13;;;0.90;;
29854;SDS011;16733;48.738;9.106;2023-09-18T14:49:12;5.82;;;0.73;;
29854;SDS011;16733;48.738;9.106;2023-09-18T14:51:38;3.50;;;0.77;;
29854;SDS011;16733;48.738;9.106;2023-09-18T14:54:05;0.40;;;0.30;;
29854;SDS011;16733;48.738;9.106;2023-09-18T14:56:33;2.10;;;0.55;;
29854;SDS011;16733;48.738;9.106;2023-09-18T14:59:01;1.42;;;0.52;;
29854;SDS011;16733;48.738;9.106;2023-09-18T15:01:27;1.15;;;0.50;;
29854;SDS011;16733;48.738;9.106;2023-09-18T15:03:53;3.53;;;0.63;;
29854;SDS011;16733;48.738;9.106;2023-09-18T15:06:19;2.70;;;0.80;;
29854;SDS011;16733;48.738;9.106;2023-09-18T15:08:46;2.78;;;0.50;;